RYR6827 EPGD-LZIB
Flight info
| Callsign | RYR6827 |
|---|---|
| Flight time | 1h 6m |
| Altitude | 34000 |
| Route | IRLUN N133 GRUDA DCT UPKIS T720 REGLI DCT MAVOR P10 BERVA |
| Aircraft | B738/M-SDE2E3FGHIRWXY/LB1 |
Departure
| Time | 2026-04-29 23:14 |
|---|---|
| Airport | Gdańsk Lech Wałęsa Airport (EPGD) |
Arrival
| Time | 2026-04-30 00:20 |
|---|---|
| Airport | M. R. Štefánik Airport (LZIB) |
| Time | Latitude | Longitude | Altitude | Speed | Heading |
|---|---|---|---|---|---|
| 2026-04-29 22:43 | 54.38182 | 18.46385 | 448 ft | 0 kts | 11° |
| 2026-04-29 23:06 | 54.38174 | 18.46383 | 435 ft | 4 kts | 20° |
| 2026-04-29 23:06 | 54.38159 | 18.46359 | 426 ft | 4 kts | 88° |
| 2026-04-29 23:06 | 54.38163 | 18.46320 | 448 ft | 1 kts | 112° |
| 2026-04-29 23:09 | 54.38155 | 18.46353 | 451 ft | 11 kts | 112° |
| 2026-04-29 23:09 | 54.38120 | 18.46492 | 449 ft | 13 kts | 114° |
| 2026-04-29 23:09 | 54.38074 | 18.46613 | 450 ft | 13 kts | 166° |
| 2026-04-29 23:09 | 54.37990 | 18.46586 | 451 ft | 12 kts | 188° |
| 2026-04-29 23:10 | 54.37927 | 18.46664 | 451 ft | 13 kts | 114° |
| 2026-04-29 23:10 | 54.37884 | 18.46832 | 453 ft | 21 kts | 114° |
| 2026-04-29 23:10 | 54.37817 | 18.47097 | 456 ft | 24 kts | 113° |
| 2026-04-29 23:10 | 54.37753 | 18.47354 | 458 ft | 23 kts | 112° |
| 2026-04-29 23:11 | 54.37691 | 18.47609 | 460 ft | 26 kts | 113° |
| 2026-04-29 23:11 | 54.37620 | 18.47894 | 463 ft | 25 kts | 114° |
| 2026-04-29 23:11 | 54.37554 | 18.48162 | 465 ft | 24 kts | 112° |
| 2026-04-29 23:11 | 54.37492 | 18.48411 | 468 ft | 23 kts | 113° |
| 2026-04-29 23:12 | 54.37432 | 18.48655 | 470 ft | 22 kts | 112° |
| 2026-04-29 23:12 | 54.37375 | 18.48895 | 472 ft | 21 kts | 112° |
| 2026-04-29 23:12 | 54.37319 | 18.49126 | 472 ft | 21 kts | 117° |
| 2026-04-29 23:12 | 54.37226 | 18.49265 | 475 ft | 20 kts | 206° |
| 2026-04-29 23:13 | 54.37152 | 18.49087 | 473 ft | 20 kts | 279° |
| 2026-04-29 23:13 | 54.37256 | 18.48649 | 472 ft | 72 kts | 292° |
| 2026-04-29 23:13 | 54.37537 | 18.47506 | 460 ft | 134 kts | 293° |
| 2026-04-29 23:13 | 54.37939 | 18.45851 | 802 ft | 154 kts | 293° |
| 2026-04-29 23:14 | 54.38367 | 18.44124 | 1500 ft | 160 kts | 294° |
| 2026-04-29 23:14 | 54.38809 | 18.42337 | 2197 ft | 164 kts | 294° |
| 2026-04-29 23:14 | 54.39257 | 18.40522 | 2923 ft | 166 kts | 295° |
| 2026-04-29 23:14 | 54.39707 | 18.38701 | 3696 ft | 166 kts | 296° |
| 2026-04-29 23:15 | 54.40163 | 18.36861 | 4358 ft | 174 kts | 297° |
| 2026-04-29 23:15 | 54.40680 | 18.34788 | 4643 ft | 202 kts | 297° |
| 2026-04-29 23:15 | 54.41262 | 18.32440 | 4894 ft | 223 kts | 297° |
| 2026-04-29 23:15 | 54.41878 | 18.29939 | 5427 ft | 231 kts | 298° |
| 2026-04-29 23:16 | 54.42499 | 18.27372 | 6184 ft | 234 kts | 294° |
| 2026-04-29 23:16 | 54.42694 | 18.24550 | 7012 ft | 245 kts | 270° |
| 2026-04-29 23:16 | 54.42271 | 18.21660 | 7716 ft | 256 kts | 251° |
| 2026-04-29 23:16 | 54.41489 | 18.18882 | 8423 ft | 264 kts | 238° |
| 2026-04-29 23:17 | 54.40092 | 18.16734 | 8891 ft | 284 kts | 208° |
| 2026-04-29 23:17 | 54.38824 | 18.15962 | 9043 ft | 300 kts | 189° |
| 2026-04-29 23:17 | 54.36714 | 18.15638 | 9626 ft | 308 kts | 180° |
| 2026-04-29 23:17 | 54.34555 | 18.15542 | 10376 ft | 312 kts | 179° |
| 2026-04-29 23:18 | 54.32356 | 18.15497 | 10922 ft | 324 kts | 178° |
| 2026-04-29 23:18 | 54.30018 | 18.15457 | 11126 ft | 346 kts | 179° |
| 2026-04-29 23:18 | 54.27579 | 18.15404 | 11685 ft | 355 kts | 179° |
| 2026-04-29 23:18 | 54.25096 | 18.15334 | 12400 ft | 358 kts | 179° |
| 2026-04-29 23:19 | 54.22589 | 18.15252 | 13156 ft | 362 kts | 179° |
| 2026-04-29 23:19 | 54.20052 | 18.15161 | 13903 ft | 367 kts | 179° |
| 2026-04-29 23:19 | 54.17481 | 18.15063 | 14617 ft | 372 kts | 179° |
| 2026-04-29 23:19 | 54.14872 | 18.14960 | 15290 ft | 377 kts | 179° |
| 2026-04-29 23:20 | 54.12231 | 18.14855 | 15987 ft | 382 kts | 179° |
| 2026-04-29 23:20 | 54.09559 | 18.14747 | 16675 ft | 387 kts | 179° |
| 2026-04-29 23:20 | 54.06847 | 18.14637 | 17340 ft | 393 kts | 179° |
| 2026-04-29 23:20 | 54.04095 | 18.14526 | 18003 ft | 398 kts | 178° |
| 2026-04-29 23:21 | 54.01306 | 18.14413 | 18670 ft | 403 kts | 178° |
| 2026-04-29 23:21 | 53.98484 | 18.14299 | 19261 ft | 408 kts | 178° |
| 2026-04-29 23:21 | 53.95630 | 18.14183 | 19868 ft | 412 kts | 178° |
| 2026-04-29 23:21 | 53.92746 | 18.14065 | 20503 ft | 416 kts | 178° |
| 2026-04-29 23:22 | 53.89837 | 18.13948 | 21080 ft | 421 kts | 178° |
| 2026-04-29 23:22 | 53.86897 | 18.13829 | 21675 ft | 424 kts | 178° |
| 2026-04-29 23:22 | 53.83933 | 18.13709 | 22274 ft | 428 kts | 177° |
| 2026-04-29 23:22 | 53.80945 | 18.13588 | 22853 ft | 432 kts | 177° |
| 2026-04-29 23:23 | 53.77926 | 18.13467 | 23408 ft | 436 kts | 177° |
| 2026-04-29 23:23 | 53.74882 | 18.13346 | 23957 ft | 440 kts | 177° |
| 2026-04-29 23:23 | 53.71805 | 18.13222 | 24426 ft | 444 kts | 177° |
| 2026-04-29 23:23 | 53.68745 | 18.13100 | 24853 ft | 448 kts | 177° |
| 2026-04-29 23:24 | 53.65613 | 18.12975 | 25279 ft | 452 kts | 177° |
| 2026-04-29 23:24 | 53.62452 | 18.12849 | 25696 ft | 457 kts | 177° |
| 2026-04-29 23:24 | 53.59265 | 18.12722 | 26135 ft | 460 kts | 176° |
| 2026-04-29 23:24 | 53.56056 | 18.12594 | 26576 ft | 463 kts | 176° |
| 2026-04-29 23:25 | 53.52777 | 18.12463 | 26980 ft | 467 kts | 176° |
| 2026-04-29 23:25 | 53.49557 | 18.12336 | 27360 ft | 471 kts | 176° |
| 2026-04-29 23:25 | 53.46266 | 18.12206 | 27749 ft | 475 kts | 176° |
| 2026-04-29 23:25 | 53.42948 | 18.12075 | 28133 ft | 479 kts | 176° |
| 2026-04-29 23:26 | 53.39602 | 18.11943 | 28516 ft | 482 kts | 176° |
| 2026-04-29 23:26 | 53.36237 | 18.11810 | 28896 ft | 486 kts | 176° |
| 2026-04-29 23:26 | 53.32843 | 18.11676 | 29280 ft | 489 kts | 176° |
| 2026-04-29 23:26 | 53.29435 | 18.11541 | 29662 ft | 492 kts | 176° |
| 2026-04-29 23:27 | 53.26006 | 18.11406 | 30000 ft | 495 kts | 175° |
| 2026-04-29 23:27 | 53.22547 | 18.11271 | 30334 ft | 499 kts | 175° |
| 2026-04-29 23:27 | 53.19072 | 18.11134 | 30739 ft | 499 kts | 175° |
| 2026-04-29 23:27 | 53.15606 | 18.10995 | 31194 ft | 498 kts | 175° |
| 2026-04-29 23:28 | 53.12149 | 18.10857 | 31640 ft | 496 kts | 175° |
| 2026-04-29 23:28 | 53.08698 | 18.10720 | 32116 ft | 495 kts | 175° |
| 2026-04-29 23:28 | 53.05266 | 18.10583 | 32630 ft | 492 kts | 175° |
| 2026-04-29 23:28 | 53.01852 | 18.10449 | 33069 ft | 491 kts | 175° |
| 2026-04-29 23:29 | 52.98439 | 18.10317 | 33434 ft | 491 kts | 175° |
| 2026-04-29 23:29 | 52.95020 | 18.10187 | 33807 ft | 491 kts | 175° |
| 2026-04-29 23:29 | 52.91613 | 18.10056 | 34217 ft | 490 kts | 175° |
| 2026-04-29 23:29 | 52.88208 | 18.09925 | 34526 ft | 491 kts | 175° |
| 2026-04-29 23:30 | 52.81325 | 18.09665 | 34506 ft | 493 kts | 175° |
| 2026-04-29 23:30 | 52.74542 | 18.09396 | 34491 ft | 485 kts | 175° |
| 2026-04-29 23:31 | 52.67785 | 18.09139 | 34509 ft | 487 kts | 175° |
| 2026-04-29 23:31 | 52.61002 | 18.08885 | 34510 ft | 488 kts | 175° |
| 2026-04-29 23:32 | 52.54202 | 18.08628 | 34506 ft | 489 kts | 175° |
| 2026-04-29 23:32 | 52.47398 | 18.08384 | 34498 ft | 489 kts | 175° |
| 2026-04-29 23:33 | 52.40593 | 18.08141 | 34497 ft | 488 kts | 175° |
| 2026-04-29 23:33 | 52.33808 | 18.07888 | 34493 ft | 487 kts | 175° |
| 2026-04-29 23:34 | 52.27057 | 18.07633 | 34535 ft | 485 kts | 175° |
| 2026-04-29 23:34 | 52.20315 | 18.07379 | 34499 ft | 484 kts | 176° |
| 2026-04-29 23:35 | 52.13645 | 18.07127 | 34494 ft | 482 kts | 176° |
| 2026-04-29 23:35 | 52.06951 | 18.06877 | 34501 ft | 480 kts | 176° |
| 2026-04-29 23:36 | 52.00273 | 18.06629 | 34503 ft | 480 kts | 176° |
| 2026-04-29 23:36 | 51.93595 | 18.06382 | 34490 ft | 480 kts | 176° |
| 2026-04-29 23:37 | 51.86912 | 18.06135 | 34496 ft | 481 kts | 176° |
| 2026-04-29 23:37 | 51.80221 | 18.05889 | 34500 ft | 481 kts | 176° |
| 2026-04-29 23:38 | 51.73520 | 18.05642 | 34492 ft | 482 kts | 176° |
| 2026-04-29 23:38 | 51.66815 | 18.05396 | 34496 ft | 482 kts | 176° |
| 2026-04-29 23:39 | 51.60101 | 18.05150 | 34482 ft | 483 kts | 176° |
| 2026-04-29 23:39 | 51.53389 | 18.04905 | 34491 ft | 482 kts | 176° |
| 2026-04-29 23:40 | 51.46678 | 18.04660 | 34527 ft | 482 kts | 176° |
| 2026-04-29 23:40 | 51.39962 | 18.04417 | 34486 ft | 482 kts | 176° |
| 2026-04-29 23:41 | 51.33274 | 18.04173 | 34478 ft | 479 kts | 176° |
| 2026-04-29 23:41 | 51.26630 | 18.03932 | 34458 ft | 476 kts | 176° |
| 2026-04-29 23:42 | 51.20025 | 18.03694 | 34467 ft | 473 kts | 176° |
| 2026-04-29 23:42 | 51.13456 | 18.03460 | 34472 ft | 472 kts | 176° |
| 2026-04-29 23:43 | 51.06887 | 18.03226 | 34470 ft | 471 kts | 176° |
| 2026-04-29 23:43 | 51.00328 | 18.02993 | 34469 ft | 471 kts | 176° |
| 2026-04-29 23:44 | 50.93811 | 18.02762 | 34461 ft | 472 kts | 176° |
| 2026-04-29 23:44 | 50.87238 | 18.02529 | 34465 ft | 473 kts | 176° |
| 2026-04-29 23:45 | 50.80657 | 18.02297 | 34460 ft | 473 kts | 176° |
| 2026-04-29 23:45 | 50.74071 | 18.02064 | 34458 ft | 474 kts | 176° |
| 2026-04-29 23:46 | 50.67481 | 18.01832 | 34488 ft | 474 kts | 177° |
| 2026-04-29 23:46 | 50.60892 | 18.01602 | 34460 ft | 473 kts | 177° |
| 2026-04-29 23:47 | 50.54328 | 18.01371 | 34450 ft | 470 kts | 177° |
| 2026-04-29 23:47 | 50.47807 | 18.01143 | 34444 ft | 467 kts | 177° |
| 2026-04-29 23:48 | 50.41324 | 18.00917 | 34446 ft | 465 kts | 177° |
| 2026-04-29 23:48 | 50.34870 | 18.00694 | 34448 ft | 463 kts | 177° |
| 2026-04-29 23:49 | 50.28436 | 18.00472 | 34444 ft | 460 kts | 177° |
| 2026-04-29 23:49 | 50.25255 | 18.00361 | 34284 ft | 455 kts | 177° |
| 2026-04-29 23:49 | 50.22104 | 18.00250 | 33977 ft | 448 kts | 177° |
| 2026-04-29 23:50 | 50.19006 | 18.00143 | 33596 ft | 445 kts | 176° |
| 2026-04-29 23:50 | 50.15927 | 18.00038 | 33261 ft | 441 kts | 176° |
| 2026-04-29 23:50 | 50.09833 | 17.99831 | 32525 ft | 435 kts | 176° |
| 2026-04-29 23:51 | 50.06813 | 17.99728 | 32155 ft | 433 kts | 175° |
| 2026-04-29 23:51 | 50.03808 | 17.99596 | 31790 ft | 432 kts | 178° |
| 2026-04-29 23:51 | 50.00853 | 17.98949 | 31409 ft | 437 kts | 188° |
| 2026-04-29 23:51 | 49.97901 | 17.97829 | 31062 ft | 436 kts | 189° |
| 2026-04-29 23:52 | 49.94967 | 17.96647 | 30702 ft | 435 kts | 189° |
| 2026-04-29 23:52 | 49.92038 | 17.95455 | 30328 ft | 434 kts | 189° |
| 2026-04-29 23:52 | 49.89122 | 17.94280 | 29925 ft | 432 kts | 189° |
| 2026-04-29 23:52 | 49.86224 | 17.93130 | 29540 ft | 429 kts | 189° |
| 2026-04-29 23:53 | 49.83340 | 17.92001 | 29189 ft | 425 kts | 189° |
| 2026-04-29 23:53 | 49.80476 | 17.90889 | 28821 ft | 423 kts | 189° |
| 2026-04-29 23:53 | 49.77639 | 17.89795 | 28468 ft | 419 kts | 189° |
| 2026-04-29 23:53 | 49.74813 | 17.88709 | 28108 ft | 417 kts | 189° |
| 2026-04-29 23:54 | 49.72011 | 17.87635 | 27747 ft | 414 kts | 189° |
| 2026-04-29 23:54 | 49.69223 | 17.86568 | 27406 ft | 411 kts | 190° |
| 2026-04-29 23:54 | 49.66455 | 17.85509 | 27057 ft | 408 kts | 190° |
| 2026-04-29 23:54 | 49.63705 | 17.84458 | 26709 ft | 406 kts | 190° |
| 2026-04-29 23:55 | 49.60975 | 17.83416 | 26379 ft | 403 kts | 190° |
| 2026-04-29 23:55 | 49.58261 | 17.82381 | 26033 ft | 401 kts | 191° |
| 2026-04-29 23:55 | 49.55560 | 17.81353 | 25694 ft | 399 kts | 191° |
| 2026-04-29 23:55 | 49.52875 | 17.80332 | 25340 ft | 397 kts | 191° |
| 2026-04-29 23:56 | 49.50202 | 17.79315 | 25008 ft | 395 kts | 191° |
| 2026-04-29 23:56 | 49.47542 | 17.78305 | 24687 ft | 393 kts | 191° |
| 2026-04-29 23:56 | 49.44896 | 17.77302 | 24346 ft | 392 kts | 192° |
| 2026-04-29 23:56 | 49.42255 | 17.76301 | 24007 ft | 390 kts | 192° |
| 2026-04-29 23:57 | 49.39625 | 17.75306 | 23602 ft | 389 kts | 192° |
| 2026-04-29 23:57 | 49.37006 | 17.74316 | 23224 ft | 386 kts | 192° |
| 2026-04-29 23:57 | 49.34409 | 17.73334 | 22909 ft | 382 kts | 192° |
| 2026-04-29 23:57 | 49.31836 | 17.72363 | 22558 ft | 379 kts | 192° |
| 2026-04-29 23:58 | 49.29286 | 17.71400 | 22234 ft | 376 kts | 192° |
| 2026-04-29 23:58 | 49.26755 | 17.70446 | 21908 ft | 373 kts | 191° |
| 2026-04-29 23:58 | 49.24240 | 17.69502 | 21575 ft | 371 kts | 191° |
| 2026-04-29 23:58 | 49.21742 | 17.68565 | 21246 ft | 368 kts | 191° |
| 2026-04-29 23:59 | 49.19264 | 17.67635 | 20925 ft | 366 kts | 191° |
| 2026-04-29 23:59 | 49.16802 | 17.66712 | 20613 ft | 363 kts | 191° |
| 2026-04-29 23:59 | 49.14354 | 17.65795 | 20292 ft | 361 kts | 191° |
| 2026-04-29 23:59 | 49.11955 | 17.64898 | 19988 ft | 359 kts | 191° |
| 2026-04-30 00:00 | 49.09538 | 17.63994 | 19678 ft | 357 kts | 191° |
| 2026-04-30 00:00 | 49.07131 | 17.63095 | 19370 ft | 355 kts | 191° |
| 2026-04-30 00:00 | 49.04738 | 17.62203 | 19061 ft | 353 kts | 191° |
| 2026-04-30 00:00 | 49.02356 | 17.61315 | 18752 ft | 352 kts | 191° |
| 2026-04-30 00:01 | 48.99981 | 17.60431 | 18410 ft | 350 kts | 191° |
| 2026-04-30 00:01 | 48.97618 | 17.59553 | 18074 ft | 348 kts | 191° |
| 2026-04-30 00:01 | 48.95271 | 17.58680 | 17769 ft | 346 kts | 191° |
| 2026-04-30 00:01 | 48.92942 | 17.57815 | 17454 ft | 344 kts | 191° |
| 2026-04-30 00:02 | 48.90629 | 17.56957 | 17165 ft | 341 kts | 191° |
| 2026-04-30 00:02 | 48.88333 | 17.56106 | 16852 ft | 339 kts | 192° |
| 2026-04-30 00:02 | 48.86050 | 17.55261 | 16550 ft | 337 kts | 192° |
| 2026-04-30 00:02 | 48.83779 | 17.54421 | 16256 ft | 335 kts | 191° |
| 2026-04-30 00:03 | 48.81509 | 17.53728 | 15945 ft | 331 kts | 181° |
| 2026-04-30 00:03 | 48.79223 | 17.53669 | 15661 ft | 326 kts | 175° |
| 2026-04-30 00:03 | 48.76961 | 17.53757 | 15364 ft | 324 kts | 175° |
| 2026-04-30 00:03 | 48.74712 | 17.53849 | 15079 ft | 323 kts | 175° |
| 2026-04-30 00:04 | 48.72471 | 17.53920 | 14789 ft | 322 kts | 176° |
| 2026-04-30 00:04 | 48.70238 | 17.53971 | 14491 ft | 321 kts | 176° |
| 2026-04-30 00:04 | 48.68009 | 17.54009 | 14201 ft | 320 kts | 176° |
| 2026-04-30 00:04 | 48.65788 | 17.54042 | 13865 ft | 319 kts | 176° |
| 2026-04-30 00:05 | 48.63579 | 17.54101 | 13561 ft | 316 kts | 172° |
| 2026-04-30 00:05 | 48.61517 | 17.54977 | 13267 ft | 303 kts | 146° |
| 2026-04-30 00:05 | 48.59872 | 17.56847 | 13046 ft | 293 kts | 129° |
| 2026-04-30 00:05 | 48.58440 | 17.59045 | 12815 ft | 294 kts | 128° |
| 2026-04-30 00:06 | 48.57491 | 17.60513 | 12640 ft | 296 kts | 128° |
| 2026-04-30 00:06 | 48.56003 | 17.62687 | 12361 ft | 301 kts | 137° |
| 2026-04-30 00:06 | 48.54124 | 17.64144 | 12099 ft | 307 kts | 156° |
| 2026-04-30 00:06 | 48.51439 | 17.65512 | 11751 ft | 307 kts | 158° |
| 2026-04-30 00:07 | 48.50070 | 17.66198 | 11572 ft | 307 kts | 158° |
| 2026-04-30 00:07 | 48.47396 | 17.67558 | 11222 ft | 306 kts | 158° |
| 2026-04-30 00:07 | 48.45391 | 17.68596 | 10961 ft | 304 kts | 158° |
| 2026-04-30 00:07 | 48.43389 | 17.69644 | 10427 ft | 306 kts | 158° |
| 2026-04-30 00:08 | 48.42042 | 17.70353 | 10189 ft | 301 kts | 158° |
| 2026-04-30 00:08 | 48.40083 | 17.71386 | 9854 ft | 296 kts | 158° |
| 2026-04-30 00:08 | 48.38147 | 17.72407 | 9585 ft | 293 kts | 158° |
| 2026-04-30 00:08 | 48.36234 | 17.73416 | 9326 ft | 290 kts | 158° |
| 2026-04-30 00:09 | 48.34342 | 17.74413 | 9079 ft | 286 kts | 159° |
| 2026-04-30 00:09 | 48.32473 | 17.75398 | 8840 ft | 283 kts | 159° |
| 2026-04-30 00:09 | 48.30628 | 17.76368 | 8597 ft | 280 kts | 159° |
| 2026-04-30 00:09 | 48.28824 | 17.77304 | 8356 ft | 276 kts | 162° |
| 2026-04-30 00:10 | 48.26929 | 17.77502 | 8113 ft | 274 kts | 193° |
| 2026-04-30 00:10 | 48.25218 | 17.76352 | 7919 ft | 270 kts | 218° |
| 2026-04-30 00:10 | 48.23818 | 17.74432 | 7699 ft | 269 kts | 226° |
| 2026-04-30 00:10 | 48.22511 | 17.72474 | 7472 ft | 269 kts | 226° |
| 2026-04-30 00:11 | 48.21179 | 17.70493 | 7239 ft | 270 kts | 225° |
| 2026-04-30 00:11 | 48.19841 | 17.68526 | 7006 ft | 269 kts | 225° |
| 2026-04-30 00:11 | 48.18510 | 17.66579 | 6764 ft | 266 kts | 224° |
| 2026-04-30 00:11 | 48.17110 | 17.64801 | 6512 ft | 263 kts | 207° |
| 2026-04-30 00:12 | 48.15386 | 17.64071 | 6364 ft | 256 kts | 188° |
| 2026-04-30 00:12 | 48.13620 | 17.63659 | 6128 ft | 257 kts | 188° |
| 2026-04-30 00:12 | 48.11850 | 17.63246 | 5908 ft | 258 kts | 187° |
| 2026-04-30 00:12 | 48.10076 | 17.62825 | 5688 ft | 258 kts | 187° |
| 2026-04-30 00:13 | 48.08301 | 17.62399 | 5466 ft | 258 kts | 187° |
| 2026-04-30 00:13 | 48.06528 | 17.61973 | 5244 ft | 258 kts | 187° |
| 2026-04-30 00:13 | 48.04778 | 17.61406 | 5012 ft | 259 kts | 201° |
| 2026-04-30 00:13 | 48.03381 | 17.59734 | 4796 ft | 261 kts | 235° |
| 2026-04-30 00:14 | 48.02740 | 17.57223 | 4590 ft | 261 kts | 262° |
| 2026-04-30 00:14 | 48.02644 | 17.54533 | 4374 ft | 258 kts | 270° |
| 2026-04-30 00:14 | 48.02648 | 17.51867 | 4148 ft | 256 kts | 270° |
| 2026-04-30 00:14 | 48.02646 | 17.49233 | 3983 ft | 249 kts | 269° |
| 2026-04-30 00:15 | 48.02633 | 17.46720 | 3901 ft | 235 kts | 269° |
| 2026-04-30 00:15 | 48.02663 | 17.44346 | 3771 ft | 223 kts | 280° |
| 2026-04-30 00:15 | 48.03356 | 17.42410 | 3637 ft | 207 kts | 320° |
| 2026-04-30 00:15 | 48.04431 | 17.40950 | 3250 ft | 210 kts | 316° |
| 2026-04-30 00:16 | 48.05409 | 17.39381 | 3034 ft | 204 kts | 315° |
| 2026-04-30 00:16 | 48.06359 | 17.37871 | 2859 ft | 195 kts | 316° |
| 2026-04-30 00:16 | 48.07277 | 17.36432 | 2666 ft | 188 kts | 317° |
| 2026-04-30 00:16 | 48.08157 | 17.35057 | 2518 ft | 178 kts | 317° |
| 2026-04-30 00:17 | 48.09017 | 17.33718 | 2417 ft | 181 kts | 318° |
| 2026-04-30 00:17 | 48.09886 | 17.32364 | 2178 ft | 177 kts | 318° |
| 2026-04-30 00:17 | 48.10708 | 17.31078 | 1952 ft | 163 kts | 319° |
| 2026-04-30 00:17 | 48.11462 | 17.29902 | 1728 ft | 152 kts | 319° |
| 2026-04-30 00:18 | 48.12191 | 17.28769 | 1494 ft | 150 kts | 319° |
| 2026-04-30 00:18 | 48.12900 | 17.27663 | 1282 ft | 144 kts | 317° |
| 2026-04-30 00:18 | 48.13586 | 17.26593 | 1084 ft | 141 kts | 317° |
| 2026-04-30 00:18 | 48.14270 | 17.25528 | 898 ft | 142 kts | 317° |
| 2026-04-30 00:19 | 48.14967 | 17.24438 | 716 ft | 150 kts | 316° |
| 2026-04-30 00:19 | 48.15669 | 17.23337 | 493 ft | 143 kts | 317° |
| 2026-04-30 00:19 | 48.16326 | 17.22328 | 430 ft | 118 kts | 314° |
| 2026-04-30 00:19 | 48.16790 | 17.21610 | 425 ft | 79 kts | 315° |
| 2026-04-30 00:20 | 48.17065 | 17.21181 | 424 ft | 31 kts | 314° |
| 2026-04-30 00:20 | 48.17130 | 17.21031 | 418 ft | 12 kts | 246° |
| 2026-04-30 00:20 | 48.17076 | 17.20939 | 427 ft | 12 kts | 225° |
| 2026-04-30 00:20 | 48.17016 | 17.20846 | 430 ft | 14 kts | 226° |
| 2026-04-30 00:21 | 48.16944 | 17.20733 | 419 ft | 16 kts | 226° |
| 2026-04-30 00:21 | 48.16868 | 17.20611 | 431 ft | 16 kts | 227° |
| 2026-04-30 00:21 | 48.16794 | 17.20493 | 426 ft | 15 kts | 224° |
| 2026-04-30 00:21 | 48.16722 | 17.20388 | 427 ft | 12 kts | 240° |
| 2026-04-30 00:22 | 48.16762 | 17.20287 | 422 ft | 13 kts | 316° |
| 2026-04-30 00:22 | 48.16829 | 17.20189 | 426 ft | 13 kts | 314° |
| 2026-04-30 00:22 | 48.16832 | 17.20096 | 426 ft | 10 kts | 233° |
| 2026-04-30 00:22 | 48.16798 | 17.20015 | 429 ft | 8 kts | 275° |
| 2026-04-30 00:23 | 48.16825 | 17.19967 | 429 ft | 3 kts | 315° |
| 2026-04-30 00:23 | 48.16830 | 17.19960 | 431 ft | 0 kts | 315° |